Texanna, Oklahoma
Current Conditions -  °F | °C
As of 9:53 PM on Thursday 18 Dec 2014 (Local Time) from KMKO Reporting Station
Overcast Overcast  
Wind Chill: 42°   Ceiling: 600
Heat Index: 42°   Visibility: 7mi
Dew Point: 39°   Wind: 3mph
Humidity: 89%   Direction: 30°NNE
Pressure: 30.25"   Gusts: NA
Location:  35.4498°N, 95.4869°W
Report Text: KMKO 190353Z AUTO 03003KT 7SM OVC006 06/04 A3025 RMK AO2 SLP244 T00560039
Loading
Personal Weather Stations






























Interactive Weather Map New forecast layout! Learn more

10-Day Weather Forecast

Advertisements
Track Severe Weather on mobile